If you wish to contribute or participate in the discussions about articles you are invited to join SKYbrary as a registered user

 Actions

Lubumbashi International Airport

From SKYbrary Wiki

FZQA
Airport
ICAO: FZQA – IATA: FBM
Summary
Name Lubumbashi International Airport
Region Africa
Territory Democratic Republic of the Congo CD.gif
Location , Katanga
Serving Lubumashi
Elevation 1,309.116 m
4,295 ft
4,295 ft1,309.116 m
Type medium airport
Coordinates 11° 35' 28.80" S, 27° 31' 51.20" E
Runways
Designator Length Width Surface ROPS
7/25 3238 m10,623.36 ft
50 m164.042 ft
ASP /


METAR
Observation FZQA 220600Z 25006KT 8000 HZ NSC 25/16 Q1018 NOSIG
Station Lubumbashi-Luano
Date/Time 22 October 2019 06:00:00
Wind direction 250°
Wind speed 06 kts
Lowest cloud amount nil significant cloud
Temperature 25°C
Dew point 16°C
Humidity 57%
QNH 1018 hPa
Weather condition n/a